createdAt,value
2022-12-12T00:28:02.576Z,100095.41
2022-12-12T01:22:19.694Z,100139.94
2022-12-12T01:47:13.108Z,100136.38
2022-12-12T03:24:35.179Z,100148.22
2022-12-12T04:07:17.105Z,100143.06
2022-12-12T04:17:58.877Z,100146.22
2022-12-12T04:33:01.277Z,100134.75
2022-12-12T04:44:23.276Z,100126.19
2022-12-12T05:00:23.918Z,100131.19
2022-12-12T06:59:31.295Z,100201.81
2022-12-12T07:01:58.792Z,100199.28
2022-12-12T07:04:26.150Z,100197.69
2022-12-12T07:06:53.703Z,100202.88
2022-12-12T07:09:20.909Z,100201.19
2022-12-12T07:11:48.199Z,100206.22
2022-12-12T07:14:15.379Z,100207.84
2022-12-12T07:16:42.566Z,100199.16
2022-12-12T07:19:09.763Z,100205.09
2022-12-12T07:21:36.889Z,100215.53
2022-12-12T07:24:04.130Z,100215.50
2022-12-12T07:26:31.768Z,100220.75
2022-12-12T07:28:58.979Z,100211.22
2022-12-12T07:31:26.544Z,100216.22
2022-12-12T07:33:54.827Z,100213.69
2022-12-12T07:36:21.994Z,100227.47
2022-12-12T07:38:49.134Z,100217.94
2022-12-12T07:41:18.801Z,100224.06
2022-12-12T07:43:46.331Z,100229.97
2022-12-12T07:46:16.809Z,100229.34
2022-12-12T07:48:44.577Z,100228.47
2022-12-12T07:51:12.255Z,100237.19
2022-12-12T07:53:39.331Z,100236.31
2022-12-12T07:56:11.579Z,100245.91
2022-12-12T07:58:39.187Z,100248.63
2022-12-12T08:01:15.345Z,100240.72
2022-12-12T08:03:44.110Z,100246.69
2022-12-12T08:06:12.323Z,100251.91
2022-12-12T08:08:39.531Z,100258.06
2022-12-12T08:11:08.438Z,100251.06
2022-12-12T08:13:36.787Z,100263.06
2022-12-12T08:16:05.238Z,100256.06
2022-12-12T08:18:32.928Z,100264.59
2022-12-12T08:21:00.214Z,100263.75
2022-12-12T08:23:27.389Z,100268.03
2022-12-12T08:25:54.495Z,100270.59
2022-12-12T08:28:21.655Z,100277.59
2022-12-12T08:30:50.449Z,100271.59
2022-12-12T08:33:18.136Z,100277.66
2022-12-12T08:35:45.840Z,100282.88
2022-12-12T08:38:13.353Z,100272.53
2022-12-12T08:40:41.459Z,100278.75
2022-12-12T08:43:09.679Z,100279.72
2022-12-12T08:45:40.147Z,100276.94
2022-12-12T08:48:07.522Z,100283.81
2022-12-12T08:50:34.871Z,100279.50
2022-12-12T08:53:02.095Z,100289.00
2022-12-12T08:55:29.188Z,100283.97
2022-12-12T08:57:56.317Z,100301.94
2022-12-12T09:00:23.719Z,100299.19
2022-12-12T09:02:50.962Z,100301.69
2022-12-12T09:05:18.232Z,100306.25
2022-12-12T09:07:45.338Z,100306.34
2022-12-12T09:10:12.469Z,100308.75
2022-12-12T09:12:41.929Z,100311.34
2022-12-12T09:15:09.758Z,100308.75
2022-12-12T09:17:36.894Z,100315.81
2022-12-12T09:20:04.466Z,100313.38
2022-12-12T09:22:31.577Z,100321.78
2022-12-12T09:24:58.735Z,100315.00
2022-12-12T09:27:26.258Z,100318.34
2022-12-12T09:29:53.351Z,100323.72
2022-12-12T09:32:24.736Z,100328.13
2022-12-12T09:34:52.184Z,100329.16
2022-12-12T09:37:19.439Z,100319.69
2022-12-12T09:39:46.587Z,100332.53
2022-12-12T09:42:29.210Z,100328.16
2022-12-12T09:45:00.707Z,100321.97
2022-12-12T09:47:36.384Z,100328.13
2022-12-12T09:50:23.913Z,100325.63
2022-12-12T09:52:51.347Z,100319.38
2022-12-12T09:55:25.737Z,100323.84
2022-12-12T09:58:03.809Z,100318.72
2022-12-12T10:00:34.693Z,100320.50
2022-12-12T10:03:22.978Z,100321.97
2022-12-12T10:06:01.919Z,100320.47
2022-12-12T10:08:49.562Z,100314.09
2022-12-12T10:11:41.941Z,100319.44
2022-12-12T10:14:10.508Z,100316.97
2022-12-12T10:16:38.529Z,100323.97
2022-12-12T10:19:19.850Z,100318.72
2022-12-12T10:21:48.306Z,100328.97
2022-12-12T10:24:40.460Z,100322.06
2022-12-12T10:27:12.977Z,100324.47
2022-12-12T10:29:46.080Z,100328.69
2022-12-12T10:32:28.384Z,100324.38
2022-12-12T10:34:55.524Z,100323.66
2022-12-12T10:37:29.072Z,100322.75
2022-12-12T10:40:14.678Z,100329.31
2022-12-12T10:42:49.578Z,100327.38
2022-12-12T10:45:52.371Z,100328.28
2022-12-12T10:48:19.933Z,100324.78
2022-12-12T10:50:56.363Z,100323.94
2022-12-12T10:53:23.545Z,100323.00
2022-12-12T10:55:57.010Z,100323.53
2022-12-12T10:58:30.812Z,100328.22
2022-12-12T11:01:03.551Z,100322.50
2022-12-12T11:03:42.746Z,100322.88
2022-12-12T11:06:18.678Z,100323.56
2022-12-12T11:08:57.937Z,100328.13
2022-12-12T11:11:27.881Z,100317.63
2022-12-12T11:14:00.308Z,100316.22
2022-12-12T11:16:31.098Z,100320.38
2022-12-12T11:18:59.536Z,100312.69
2022-12-12T11:21:28.252Z,100324.41
2022-12-12T11:23:56.908Z,100311.81
2022-12-12T11:26:24.508Z,100314.81
2022-12-12T11:29:02.535Z,100317.78
2022-12-12T11:31:31.919Z,100308.91
2022-12-12T11:34:01.962Z,100307.47
2022-12-12T11:36:36.037Z,100310.47
2022-12-12T11:39:16.850Z,100318.50
2022-12-12T11:42:00.712Z,100317.38
2022-12-12T11:44:33.270Z,100325.56
2022-12-12T11:47:18.747Z,100326.41
2022-12-12T11:49:47.640Z,100325.63
2022-12-12T11:52:25.056Z,100333.34
2022-12-12T11:54:53.682Z,100328.34
2022-12-12T11:57:39.292Z,100330.44
2022-12-12T12:00:12.872Z,100335.75
2022-12-12T12:03:05.238Z,100324.19
2022-12-12T12:05:47.882Z,100334.13
2022-12-12T12:08:40.750Z,100332.75
2022-12-12T12:11:27.245Z,100333.38
2022-12-12T12:14:03.454Z,100338.56
2022-12-12T12:16:52.150Z,100341.84
2022-12-12T12:19:44.178Z,100352.50
2022-12-12T12:22:17.156Z,100352.91
2022-12-12T12:25:03.831Z,100352.25
2022-12-12T12:27:38.691Z,100347.78
2022-12-12T12:30:24.758Z,100342.84
2022-12-12T12:32:55.001Z,100338.19
2022-12-12T12:35:31.183Z,100338.84
2022-12-12T12:38:07.157Z,100340.31
2022-12-12T12:40:43.065Z,100328.06
2022-12-12T12:43:25.092Z,100331.00
2022-12-12T12:46:11.806Z,100330.63
2022-12-12T12:48:49.829Z,100337.53
2022-12-12T12:51:52.991Z,100333.06
2022-12-12T12:54:25.885Z,100332.28
2022-12-12T12:57:04.480Z,100333.28
2022-12-12T12:59:35.646Z,100338.53
2022-12-12T13:02:12.185Z,100335.25
2022-12-12T13:05:07.290Z,100330.94
2022-12-12T13:07:50.071Z,100336.19
2022-12-12T13:10:23.863Z,100320.72
2022-12-12T13:12:57.804Z,100333.66
2022-12-12T13:15:34.935Z,100337.22
2022-12-12T13:18:05.295Z,100327.03
2022-12-12T13:20:35.145Z,100326.19
2022-12-12T13:23:14.505Z,100333.88
2022-12-12T13:26:08.605Z,100337.16
2022-12-12T13:28:40.687Z,100331.03
2022-12-12T13:31:55.415Z,100335.25
2022-12-12T13:34:24.364Z,100338.53
2022-12-12T13:36:51.997Z,100334.41
2022-12-12T13:39:30.123Z,100339.75
2022-12-12T13:42:01.134Z,100331.22
2022-12-12T13:44:36.673Z,100346.97
2022-12-12T13:47:35.514Z,100336.78
2022-12-12T13:50:09.196Z,100344.31
2022-12-12T13:52:43.411Z,100338.94
2022-12-12T13:55:13.656Z,100342.47
2022-12-12T13:58:16.690Z,100344.44
2022-12-12T14:00:43.946Z,100355.72
2022-12-12T14:03:11.110Z,100340.28
2022-12-12T14:06:08.046Z,100351.59
2022-12-12T14:08:36.926Z,100352.63
2022-12-12T14:11:07.604Z,100346.84
2022-12-12T14:13:45.215Z,100356.31
2022-12-12T14:16:25.813Z,100360.69
2022-12-12T14:18:59.835Z,100356.31
2022-12-12T14:21:42.663Z,100366.88
2022-12-12T14:24:34.355Z,100360.78
2022-12-12T14:27:07.689Z,100359.13
2022-12-12T14:29:39.609Z,100366.06
2022-12-12T14:32:12.519Z,100364.41
2022-12-12T14:35:01.224Z,100371.38
2022-12-12T14:54:36.931Z,100383.72
2022-12-12T15:10:45.854Z,100391.56
2022-12-12T15:26:44.684Z,100408.72
2022-12-12T18:22:02.247Z,100462.03
2022-12-12T18:24:29.923Z,100458.72
2022-12-12T18:26:59.178Z,100459.59
2022-12-12T18:29:26.737Z,100466.47
2022-12-12T18:31:54.134Z,100459.59
2022-12-12T18:34:21.396Z,100456.91
2022-12-12T18:49:37.208Z,100464.88
2022-12-12T19:09:47.108Z,100476.22
2022-12-12T20:17:00.370Z,100499.72
2022-12-12T23:33:59.917Z,100518.97
2022-12-12T23:36:36.102Z,100511.28
